Calvi, France

8:01 AM CEST on September 02, 2015 (GMT +0200)
Saint Catherine | | Change Station
CLOSE
Current Station
Airport
Location: Calvi,
Elevation: 190 ft
Nearby Weather Stations

Elev 190 ft 42.53 °N, 8.79 °E | Updated 31 minutes ago

Clear
Clear
75 °F
Feels Like 75 °F
N
9
Wind Variable Wind from SSW

Today
High -- | Low -- °F
--% Chance of Precip.
Yesterday
High -- | Low -- °F
Precip. -- in
6:50 AM 7:58 PM
Waning Gibbous, 83% visible
Pressure 29.89 in
Visibility -9999.0 miles
Clouds
Dew Point 59 °F
Humidity 57%
Rainfall 0.00 in
Snow Depth Not available.
UV Not available.
Pollen Not available.
Air Quality Not available.
Flu Activity Not available.
METAR LFKC 020530Z 20008KT CAVOK 24/15 Q1012 NOSIG
Pressure 29.89 in
Visibility -9999.0 miles
Clouds
Dew Point 59 °F
Humidity 57%
Rainfall 0.00 in
Snow Depth Not available.
UV Not available.
Pollen Not available.
Air Quality Not available.
Flu Activity Not available.
METAR LFKC 020530Z 20008KT CAVOK 24/15 Q1012 NOSIG

10-Day Weather Forecast

×

Almanac

Astronomy

Sep. 02, 2015 Rise Set
Actual Time
Civil Twilight
Nautical Twilight
Astronomical Twilight
Moon
Length of Visible Light
Length of Day
Tomorrow will be .
, % of the Moon is Illuminated

Today's Extremes

Country Highs Country Lows

Community

WunderPhotos

Upload Photos

1,851,709 photos uploaded!

WunderBlogs® & News

Nearby

Air Quality

  Air Quality AQ Index Pollutant
Not available.

Snow Depth

Station Depth Elevation

Earthquake Activity

City Distance Mag. Time & Date
Minimum magnitude displayed is 2.5.

Coastal Water Temperatures

Place Temperature

Stations

Nearby Weather Stations

Station Location Temp. Windchill Dew Point Humidity Wind Precip. Elev Updated Type